Time;durP1;ratioP1;P1;durP2;ratioP2;P2;SDS_P1;SDS_P2;PMS_P1;PMS_P2;Temp;Humidity;BMP_temperature;BMP_pressure;BME280_temperature;BME280_humidity;BME280_pressure;Samples;Min_cycle;Max_cycle;Signal;HPM_P1;HPM_P2
2021/05/22 00:00:51;;;;;;;9.15;2.03;;;11.60;69.70;;;;;;4970412;28;20041;-88
2021/05/22 00:03:16;;;;;;;14.50;2.13;;;11.50;70.00;;;;;;4971436;28;20039;-86
2021/05/22 00:05:42;;;;;;;10.18;2.75;;;11.50;70.40;;;;;;4965890;28;20604;-87
2021/05/22 00:08:08;;;;;;;7.93;1.38;;;11.50;71.00;;;;;;4970222;28;20045;-87
2021/05/22 00:10:34;;;;;;;7.53;2.20;;;11.40;71.30;;;;;;4971703;28;20035;-85
2021/05/22 00:13:00;;;;;;;7.88;1.70;;;11.40;71.80;;;;;;4972754;28;20034;-86
2021/05/22 00:15:26;;;;;;;10.32;1.80;;;11.30;72.20;;;;;;4968201;28;20035;-87
2021/05/22 00:17:52;;;;;;;10.10;1.77;;;11.30;72.70;;;;;;4987766;28;20174;-86
2021/05/22 00:20:18;;;;;;;6.57;1.70;;;11.20;73.10;;;;;;4967430;28;20047;-85
2021/05/22 00:22:45;;;;;;;5.78;1.63;;;11.20;73.60;;;;;;4972461;28;20034;-86
2021/05/22 00:25:12;;;;;;;9.02;1.60;;;11.10;73.90;;;;;;4972305;28;20485;-85
2021/05/22 00:27:38;;;;;;;5.75;1.27;;;11.10;74.30;;;;;;4973516;28;20049;-85
2021/05/22 00:30:05;;;;;;;6.47;1.52;;;11.10;74.60;;;;;;4969883;28;20039;-87
2021/05/22 00:32:31;;;;;;;13.40;2.25;;;11.10;74.80;;;;;;4951511;28;20501;-87
2021/05/22 00:34:58;;;;;;;6.22;1.70;;;11.10;75.20;;;;;;4967572;28;20456;-86
2021/05/22 00:37:24;;;;;;;8.77;1.65;;;11.10;75.60;;;;;;4986768;28;20043;-86
2021/05/22 00:39:50;;;;;;;10.20;1.92;;;11.10;75.80;;;;;;4958253;28;20132;-84
2021/05/22 00:42:16;;;;;;;12.05;1.92;;;11.00;75.80;;;;;;4985443;28;20557;-86
2021/05/22 00:45:04;;;;;;;8.65;1.95;;;11.00;75.80;;;;;;4970288;28;20063;-84
2021/05/22 00:47:29;;;;;;;8.85;1.90;;;11.10;76.30;;;;;;5000669;28;20043;-87
2021/05/22 00:49:55;;;;;;;10.02;1.50;;;11.10;75.40;;;;;;4967535;28;20481;-85
2021/05/22 00:52:22;;;;;;;15.43;1.77;;;11.10;75.30;;;;;;4965559;28;20043;-84
2021/05/22 00:54:48;;;;;;;9.35;1.85;;;11.10;75.00;;;;;;4951936;28;20059;-84
2021/05/22 00:57:15;;;;;;;11.85;2.00;;;11.10;74.30;;;;;;4982885;28;20046;-84
2021/05/22 00:59:43;;;;;;;10.00;1.88;;;11.20;74.30;;;;;;4983662;28;20074;-82
2021/05/22 01:02:11;;;;;;;12.85;1.48;;;11.20;73.90;;;;;;4979651;28;20122;-83
2021/05/22 01:04:37;;;;;;;13.50;2.20;;;11.30;73.90;;;;;;4966619;28;20034;-85
2021/05/22 01:07:04;;;;;;;12.70;1.98;;;11.30;74.00;;;;;;4969244;28;20508;-85
2021/05/22 01:09:32;;;;;;;10.52;2.33;;;11.20;73.90;;;;;;4974694;28;20031;-85
2021/05/22 01:12:02;;;;;;;10.43;2.17;;;11.20;74.00;;;;;;4986163;28;20034;-83
2021/05/22 01:14:36;;;;;;;14.75;2.85;;;11.30;74.10;;;;;;4968158;28;20043;-86
2021/05/22 01:17:03;;;;;;;11.77;1.92;;;11.30;74.10;;;;;;4983213;28;20073;-87
2021/05/22 01:19:53;;;;;;;8.15;1.60;;;11.20;74.20;;;;;;4984934;28;20469;-84
2021/05/22 01:22:20;;;;;;;8.52;1.60;;;11.20;74.70;;;;;;4972186;28;20034;-86
2021/05/22 01:25:17;;;;;;;7.85;1.80;;;11.20;75.30;;;;;;4963349;28;20047;-85
2021/05/22 01:27:43;;;;;;;7.47;1.85;;;11.20;75.60;;;;;;4969865;28;20042;-82
2021/05/22 01:30:10;;;;;;;8.52;1.77;;;11.10;76.20;;;;;;4983271;28;20092;-85
2021/05/22 01:32:37;;;;;;;11.25;2.00;;;11.20;76.70;;;;;;4967302;28;20053;-88
2021/05/22 01:35:04;;;;;;;7.05;1.55;;;11.10;77.10;;;;;;4952462;28;20046;-85
2021/05/22 01:37:30;;;;;;;11.23;1.63;;;11.10;77.70;;;;;;4967328;28;20147;-88
2021/05/22 01:39:55;;;;;;;8.02;1.98;;;11.10;78.00;;;;;;4966335;28;20130;-83
2021/05/22 01:42:21;;;;;;;10.35;1.80;;;11.10;78.40;;;;;;4967710;28;20443;-88
2021/05/22 01:44:50;;;;;;;5.53;1.67;;;11.00;78.60;;;;;;4969732;28;20034;-84
2021/05/22 01:47:19;;;;;;;5.78;1.92;;;11.00;79.60;;;;;;4986688;28;20045;-86
2021/05/22 01:49:46;;;;;;;7.78;2.00;;;11.00;79.20;;;;;;4993626;28;20098;-86
2021/05/22 01:52:13;;;;;;;8.65;1.67;;;11.00;79.60;;;;;;4963124;28;20049;-85
2021/05/22 01:54:40;;;;;;;7.43;1.42;;;10.90;79.80;;;;;;4947309;29;20046;-87
2021/05/22 01:57:07;;;;;;;5.95;1.63;;;10.90;80.00;;;;;;4946027;28;20470;-87
2021/05/22 01:59:38;;;;;;;5.25;1.25;;;10.90;80.20;;;;;;4986915;28;20506;-86
2021/05/22 02:02:04;;;;;;;6.80;1.40;;;10.90;80.40;;;;;;4970992;28;20078;-85
2021/05/22 02:04:31;;;;;;;6.75;1.60;;;10.90;80.50;;;;;;4952732;28;20026;-86
2021/05/22 02:06:59;;;;;;;13.45;2.13;;;10.90;80.70;;;;;;4969446;28;20041;-86
2021/05/22 02:09:26;;;;;;;7.25;1.58;;;10.80;80.90;;;;;;4967511;28;20059;-85
2021/05/22 02:11:54;;;;;;;8.13;1.88;;;10.80;81.10;;;;;;4951196;29;20074;-82
2021/05/22 02:14:32;;;;;;;9.25;1.80;;;10.80;81.90;;;;;;4961861;28;20034;-86
2021/05/22 02:17:00;;;;;;;6.55;1.27;;;10.80;81.20;;;;;;4967817;28;20041;-89
2021/05/22 02:19:28;;;;;;;9.20;1.80;;;10.70;81.30;;;;;;4966262;28;20065;-86
2021/05/22 02:21:54;;;;;;;9.55;1.80;;;10.70;81.50;;;;;;4982875;28;20077;-87
2021/05/22 02:24:25;;;;;;;7.05;2.30;;;10.70;81.60;;;;;;4976171;28;20130;-84
2021/05/22 02:26:56;;;;;;;6.10;1.70;;;10.70;81.80;;;;;;4998976;28;20045;-87
2021/05/22 02:29:24;;;;;;;8.98;2.20;;;10.70;81.80;;;;;;4953415;28;20101;-87
2021/05/22 02:31:51;;;;;;;8.60;1.85;;;10.70;81.70;;;;;;4984006;28;20493;-86
2021/05/22 02:34:31;;;;;;;8.25;1.40;;;10.70;81.80;;;;;;4981817;28;20061;-86
2021/05/22 02:36:59;;;;;;;7.35;1.70;;;10.70;81.90;;;;;;4960387;28;20063;-87
2021/05/22 02:39:26;;;;;;;8.50;1.70;;;10.60;81.80;;;;;;4963200;28;20497;-90
2021/05/22 02:41:55;;;;;;;11.63;1.88;;;10.60;81.80;;;;;;4952312;28;20035;-85
2021/05/22 02:44:24;;;;;;;6.63;2.05;;;10.60;81.80;;;;;;4963820;28;20569;-86
2021/05/22 02:46:51;;;;;;;9.43;1.80;;;10.60;81.90;;;;;;4979560;28;20038;-85
2021/05/22 02:49:25;;;;;;;6.15;1.45;;;10.60;81.90;;;;;;4961610;28;20163;-84
2021/05/22 02:51:53;;;;;;;8.50;1.77;;;10.60;82.00;;;;;;4967710;28;20038;-87
2021/05/22 02:54:21;;;;;;;5.43;1.30;;;10.60;81.90;;;;;;4960685;28;20078;-88
2021/05/22 02:56:48;;;;;;;7.07;1.50;;;10.60;81.90;;;;;;4947092;28;20039;-83
2021/05/22 02:59:15;;;;;;;7.03;1.70;;;10.60;81.70;;;;;;4965348;28;20545;-85
2021/05/22 03:01:41;;;;;;;7.43;1.95;;;10.60;81.90;;;;;;4991022;28;20047;-85
2021/05/22 03:04:07;;;;;;;9.52;1.83;;;10.60;81.80;;;;;;4981816;28;20073;-82
2021/05/22 03:06:33;;;;;;;9.25;1.60;;;10.60;81.60;;;;;;4934942;28;20216;-88
2021/05/22 03:08:59;;;;;;;9.05;2.45;;;10.70;81.80;;;;;;4965371;28;20054;-83
2021/05/22 03:11:25;;;;;;;6.40;1.55;;;10.60;81.70;;;;;;4965880;28;20030;-86
2021/05/22 03:13:51;;;;;;;8.95;1.73;;;10.60;81.70;;;;;;4963454;28;20668;-86
2021/05/22 03:16:17;;;;;;;8.55;1.52;;;10.60;81.70;;;;;;4961640;28;20054;-86
2021/05/22 03:18:43;;;;;;;8.65;1.67;;;10.70;81.70;;;;;;4964614;28;20038;-85
2021/05/22 03:21:11;;;;;;;6.60;1.70;;;10.60;82.10;;;;;;4967125;28;20041;-84
2021/05/22 03:23:38;;;;;;;11.52;2.38;;;10.60;82.30;;;;;;4969104;28;20066;-85
2021/05/22 03:26:04;;;;;;;4.25;1.60;;;10.60;82.60;;;;;;4983612;28;20137;-86
2021/05/22 03:28:30;;;;;;;10.43;1.80;;;10.60;82.50;;;;;;4969623;28;20135;-85
2021/05/22 03:30:56;;;;;;;8.25;1.60;;;10.60;82.40;;;;;;4953826;28;20049;-87
2021/05/22 03:33:23;;;;;;;9.57;1.80;;;10.60;82.30;;;;;;4955436;28;20053;-82
2021/05/22 03:35:49;;;;;;;9.80;1.55;;;10.60;82.50;;;;;;4965733;28;20027;-85
2021/05/22 03:38:15;;;;;;;8.80;1.98;;;10.60;82.70;;;;;;4967383;28;20031;-87
2021/05/22 03:40:41;;;;;;;6.88;1.55;;;10.50;82.80;;;;;;4930896;28;20050;-85
2021/05/22 03:43:06;;;;;;;6.18;1.63;;;10.50;83.10;;;;;;4970345;28;20516;-85
2021/05/22 03:45:32;;;;;;;7.28;1.35;;;10.50;83.70;;;;;;4967632;28;20038;-84
2021/05/22 03:47:58;;;;;;;8.65;1.85;;;10.50;84.20;;;;;;4946724;29;20481;-83
2021/05/22 03:50:24;;;;;;;5.80;1.55;;;10.50;84.70;;;;;;4970334;28;20059;-85
2021/05/22 03:52:50;;;;;;;4.50;1.52;;;10.40;85.30;;;;;;4951200;28;20113;-84
2021/05/22 03:55:20;;;;;;;6.70;1.48;;;10.40;86.00;;;;;;4967505;28;20031;-86
2021/05/22 03:57:47;;;;;;;8.75;1.65;;;10.30;86.80;;;;;;4981100;28;20031;-85
2021/05/22 04:00:13;;;;;;;7.35;2.10;;;10.20;87.50;;;;;;4977723;28;20043;-84
2021/05/22 04:02:40;;;;;;;10.13;1.90;;;10.20;88.20;;;;;;4987454;28;20146;-86
2021/05/22 04:05:07;;;;;;;7.40;2.00;;;10.10;88.80;;;;;;4984983;28;20053;-85
2021/05/22 04:07:33;;;;;;;6.68;1.98;;;10.10;89.30;;;;;;4986837;28;20131;-84
2021/05/22 04:09:58;;;;;;;7.70;1.60;;;10.00;89.80;;;;;;4969888;28;20041;-84
2021/05/22 04:12:24;;;;;;;10.10;1.90;;;10.00;89.80;;;;;;4969880;28;20058;-83
2021/05/22 04:14:50;;;;;;;7.00;1.90;;;10.00;90.00;;;;;;4951707;28;20044;-85
2021/05/22 04:17:16;;;;;;;9.63;2.20;;;10.00;90.10;;;;;;4969654;28;20173;-85
2021/05/22 04:19:42;;;;;;;9.68;1.80;;;10.00;90.30;;;;;;4968973;28;20043;-87
2021/05/22 04:22:07;;;;;;;5.88;1.92;;;9.90;90.40;;;;;;4969430;28;20442;-85
2021/05/22 04:24:33;;;;;;;13.63;2.17;;;9.90;90.60;;;;;;4971585;28;20114;-85
2021/05/22 04:26:59;;;;;;;5.35;1.83;;;9.90;90.70;;;;;;4968489;28;20042;-82
2021/05/22 04:29:25;;;;;;;8.75;2.03;;;9.80;90.90;;;;;;4970756;28;20062;-87
2021/05/22 04:31:51;;;;;;;6.75;1.80;;;9.80;91.00;;;;;;4968573;28;20594;-82
2021/05/22 04:34:17;;;;;;;8.13;2.13;;;9.70;91.40;;;;;;4977878;28;20031;-84
2021/05/22 04:36:43;;;;;;;7.50;2.00;;;9.70;91.40;;;;;;4968752;28;20035;-86
2021/05/22 04:39:08;;;;;;;7.07;1.92;;;9.70;91.70;;;;;;4969782;28;20478;-83
2021/05/22 04:41:34;;;;;;;6.03;2.10;;;9.60;91.90;;;;;;4969286;28;20435;-81
2021/05/22 04:44:00;;;;;;;7.78;2.22;;;9.60;92.00;;;;;;4970619;28;20035;-85
2021/05/22 04:46:26;;;;;;;9.20;2.53;;;9.60;92.30;;;;;;4970945;28;20047;-84
2021/05/22 04:48:54;;;;;;;7.38;2.17;;;9.50;92.40;;;;;;4971832;28;20031;-83
2021/05/22 04:51:21;;;;;;;6.18;2.20;;;9.50;92.60;;;;;;4964614;28;20070;-82
2021/05/22 04:53:47;;;;;;;12.10;2.60;;;9.40;92.80;;;;;;4972795;28;20043;-83
2021/05/22 04:56:13;;;;;;;8.25;2.40;;;9.40;93.00;;;;;;4984920;28;20037;-85
2021/05/22 04:58:39;;;;;;;10.18;2.38;;;9.40;93.10;;;;;;4971919;28;20486;-82
2021/05/22 05:01:05;;;;;;;11.25;2.80;;;9.40;93.70;;;;;;4969230;28;20090;-82
2021/05/22 05:03:51;;;;;;;8.80;2.38;;;9.40;93.40;;;;;;4966396;28;20513;-83
2021/05/22 05:06:18;;;;;;;13.43;2.63;;;9.30;93.50;;;;;;4972138;28;20035;-83
2021/05/22 05:08:44;;;;;;;8.57;2.28;;;9.40;93.70;;;;;;4969019;28;20270;-78
2021/05/22 05:11:10;;;;;;;12.68;3.05;;;9.40;93.80;;;;;;4953559;28;20074;-83
2021/05/22 05:13:37;;;;;;;12.95;3.22;;;9.40;93.60;;;;;;4977303;28;20038;-83
2021/05/22 05:16:03;;;;;;;9.00;2.40;;;9.40;93.70;;;;;;4974541;28;20043;-83
2021/05/22 05:18:29;;;;;;;9.35;2.70;;;9.40;93.80;;;;;;4970473;28;20034;-81
2021/05/22 05:20:55;;;;;;;5.90;2.03;;;9.40;93.90;;;;;;4967340;28;20106;-83
2021/05/22 05:23:22;;;;;;;7.72;2.15;;;9.40;93.90;;;;;;4984744;28;20724;-83
2021/05/22 05:25:51;;;;;;;10.07;2.50;;;9.40;93.80;;;;;;4968230;28;20117;-83
2021/05/22 05:28:20;;;;;;;14.00;2.70;;;9.40;93.80;;;;;;4963457;28;20047;-84
2021/05/22 05:30:47;;;;;;;7.45;2.53;;;9.40;93.80;;;;;;4965516;28;20035;-83
2021/05/22 05:33:13;;;;;;;8.18;2.22;;;9.40;93.90;;;;;;4960991;28;20042;-84
2021/05/22 05:35:39;;;;;;;8.95;2.53;;;9.40;93.90;;;;;;4950011;28;20035;-81
2021/05/22 05:38:06;;;;;;;10.05;2.20;;;9.40;93.90;;;;;;4969755;28;20034;-84
2021/05/22 05:40:32;;;;;;;4.28;2.03;;;9.40;93.80;;;;;;4961215;28;20039;-83
2021/05/22 05:42:57;;;;;;;6.85;2.03;;;9.40;93.70;;;;;;4972564;28;20031;-81
2021/05/22 05:45:24;;;;;;;7.30;2.10;;;9.50;93.70;;;;;;4969115;28;20074;-83
2021/05/22 05:47:53;;;;;;;4.82;1.73;;;9.50;93.60;;;;;;5000868;28;20093;-84
2021/05/22 05:50:19;;;;;;;7.25;1.90;;;9.50;93.60;;;;;;4972882;28;20607;-84
2021/05/22 05:52:45;;;;;;;5.85;1.85;;;9.50;93.60;;;;;;4986228;28;20042;-84
2021/05/22 05:55:12;;;;;;;7.72;2.67;;;9.50;93.60;;;;;;4965464;28;20039;-82
2021/05/22 05:57:38;;;;;;;5.57;2.15;;;9.60;93.70;;;;;;5000871;28;20053;-83
2021/05/22 06:00:05;;;;;;;7.25;1.88;;;9.60;93.80;;;;;;4984673;28;20043;-82
2021/05/22 06:02:31;;;;;;;10.88;2.35;;;9.60;93.90;;;;;;4944408;28;20485;-82
2021/05/22 06:04:57;;;;;;;6.38;2.05;;;9.60;94.00;;;;;;4979749;28;20122;-84
2021/05/22 06:07:24;;;;;;;7.55;1.90;;;9.60;94.10;;;;;;4970806;28;20066;-82
2021/05/22 06:09:50;;;;;;;7.10;2.42;;;9.60;94.10;;;;;;4964925;28;20039;-81
2021/05/22 06:12:15;;;;;;;6.47;1.90;;;9.50;94.00;;;;;;4978578;28;20057;-83
2021/05/22 06:14:46;;;;;;;5.15;2.33;;;9.60;94.10;;;;;;4970250;28;20038;-82
2021/05/22 06:17:12;;;;;;;7.78;2.25;;;9.60;94.10;;;;;;4984183;28;20043;-82
2021/05/22 06:19:38;;;;;;;6.60;1.70;;;9.60;94.20;;;;;;4964246;28;20070;-82
2021/05/22 06:22:04;;;;;;;8.30;2.05;;;9.60;94.30;;;;;;4968032;28;20058;-82
2021/05/22 06:24:30;;;;;;;5.07;1.88;;;9.60;94.30;;;;;;4950021;29;20070;-83
2021/05/22 06:26:57;;;;;;;7.32;2.15;;;9.60;94.30;;;;;;4967648;28;20134;-84
2021/05/22 06:29:23;;;;;;;8.98;1.88;;;9.60;94.20;;;;;;4968532;28;20410;-83
2021/05/22 06:31:49;;;;;;;7.82;2.42;;;9.70;94.40;;;;;;4966272;28;20050;-82
2021/05/22 06:34:15;;;;;;;6.80;2.40;;;9.70;94.40;;;;;;4965868;28;20057;-82
2021/05/22 06:36:41;;;;;;;3.53;2.10;;;9.80;94.30;;;;;;4966317;28;20047;-81
2021/05/22 06:39:07;;;;;;;5.07;1.70;;;9.90;94.30;;;;;;4984317;28;20039;-84
2021/05/22 06:41:32;;;;;;;7.07;2.60;;;9.90;94.30;;;;;;4951000;28;20058;-86
2021/05/22 06:43:58;;;;;;;6.40;2.17;;;10.00;94.20;;;;;;4951171;28;20039;-83
2021/05/22 06:48:50;;;;;;;16.40;2.53;;;10.00;94.10;;;;;;4978368;28;20046;-85
2021/05/22 06:51:16;;;;;;;6.07;1.73;;;10.00;94.20;;;;;;4941036;28;20050;-82
2021/05/22 06:53:42;;;;;;;9.50;2.47;;;10.00;94.20;;;;;;4980544;28;20039;-81
2021/05/22 06:56:07;;;;;;;7.63;2.60;;;10.00;94.00;;;;;;4977467;28;20034;-84
2021/05/22 06:58:33;;;;;;;7.07;2.38;;;10.00;94.20;;;;;;4980080;28;20038;-84
2021/05/22 07:00:59;;;;;;;5.40;2.35;;;10.10;94.20;;;;;;4983547;28;20069;-83
2021/05/22 07:03:25;;;;;;;4.75;2.00;;;10.10;94.20;;;;;;4964536;28;20062;-80
2021/05/22 07:05:52;;;;;;;9.43;2.60;;;10.10;94.40;;;;;;4963707;28;20576;-82
2021/05/22 07:08:19;;;;;;;6.63;2.20;;;10.10;94.70;;;;;;4966859;28;20047;-82
2021/05/22 07:10:47;;;;;;;4.85;2.35;;;10.10;94.50;;;;;;4995173;28;20034;-83
2021/05/22 07:13:12;;;;;;;6.68;2.20;;;10.10;94.60;;;;;;4965254;28;20495;-83
2021/05/22 07:15:38;;;;;;;7.13;2.42;;;10.10;94.60;;;;;;4962718;28;20083;-84
2021/05/22 07:18:04;;;;;;;6.50;2.80;;;10.10;95.00;;;;;;4965291;28;20061;-84
2021/05/22 07:20:30;;;;;;;9.45;2.50;;;10.00;94.70;;;;;;4967619;28;20121;-83
2021/05/22 07:22:56;;;;;;;7.90;2.63;;;10.00;94.80;;;;;;4949454;28;20166;-82
2021/05/22 07:25:23;;;;;;;8.07;2.50;;;10.00;95.00;;;;;;4980877;28;20047;-83
2021/05/22 07:27:50;;;;;;;9.35;2.75;;;10.00;95.10;;;;;;4982177;28;20089;-84
2021/05/22 07:30:16;;;;;;;11.32;2.88;;;10.00;95.00;;;;;;4949069;28;20471;-82
2021/05/22 07:32:43;;;;;;;7.18;3.03;;;10.10;95.10;;;;;;4961094;28;20070;-81
2021/05/22 07:35:11;;;;;;;9.50;3.33;;;10.10;95.20;;;;;;4978675;28;20031;-83
2021/05/22 07:37:37;;;;;;;8.55;3.70;;;10.10;95.20;;;;;;4979718;28;20033;-83
2021/05/22 07:40:05;;;;;;;8.57;3.17;;;10.10;95.30;;;;;;4973668;28;20486;-83
2021/05/22 07:42:31;;;;;;;9.05;3.28;;;10.10;95.40;;;;;;4979306;28;20030;-84
2021/05/22 07:44:58;;;;;;;6.78;2.92;;;10.10;95.50;;;;;;4952660;28;20597;-86
2021/05/22 07:47:24;;;;;;;4.40;2.83;;;10.10;95.60;;;;;;4966931;28;20031;-85
2021/05/22 07:49:51;;;;;;;7.50;3.58;;;10.00;95.70;;;;;;4953307;28;20058;-85
2021/05/22 07:52:18;;;;;;;9.30;3.70;;;10.00;95.70;;;;;;5002720;28;20544;-83
2021/05/22 07:54:48;;;;;;;8.88;3.30;;;10.00;95.80;;;;;;4969774;28;20508;-82
2021/05/22 07:57:16;;;;;;;8.43;3.70;;;10.00;95.90;;;;;;4963979;28;20485;-83
2021/05/22 07:59:42;;;;;;;7.40;3.65;;;10.00;96.00;;;;;;4968894;28;20042;-83
2021/05/22 08:02:09;;;;;;;7.13;3.63;;;10.00;96.20;;;;;;4969804;28;20050;-81
2021/05/22 08:04:35;;;;;;;13.52;4.20;;;10.00;96.30;;;;;;4962039;28;20035;-81
2021/05/22 08:07:01;;;;;;;10.73;4.20;;;10.00;96.30;;;;;;4969577;28;20026;-81
2021/05/22 08:09:28;;;;;;;10.13;4.38;;;10.00;96.40;;;;;;4988276;28;20065;-81
2021/05/22 08:11:54;;;;;;;11.25;4.82;;;10.00;96.40;;;;;;4969881;28;20457;-83
2021/05/22 08:14:20;;;;;;;9.00;4.72;;;10.00;96.50;;;;;;4981671;28;20442;-80
2021/05/22 08:16:46;;;;;;;13.55;4.82;;;10.00;96.60;;;;;;4970765;28;20102;-83
2021/05/22 08:19:13;;;;;;;11.80;4.53;;;9.90;96.60;;;;;;4971823;28;20085;-82
2021/05/22 08:21:40;;;;;;;12.05;5.13;;;9.90;96.80;;;;;;4973206;28;20078;-82
2021/05/22 08:24:07;;;;;;;10.27;4.70;;;9.90;96.90;;;;;;4972146;28;20051;-82
2021/05/22 08:26:34;;;;;;;13.98;5.28;;;9.90;97.00;;;;;;4971504;28;20043;-81
2021/05/22 08:29:01;;;;;;;14.77;5.55;;;9.90;97.10;;;;;;4988409;28;20549;-82
2021/05/22 08:31:27;;;;;;;10.00;5.75;;;9.90;97.30;;;;;;4969831;28;20039;-80
2021/05/22 08:33:53;;;;;;;11.52;5.80;;;9.90;97.10;;;;;;4971677;28;20066;-82
2021/05/22 08:36:19;;;;;;;8.15;5.43;;;9.90;97.30;;;;;;5000971;28;20062;-82
2021/05/22 08:38:45;;;;;;;10.02;6.07;;;9.90;97.30;;;;;;4972029;28;20035;-82
2021/05/22 08:41:11;;;;;;;9.65;7.00;;;10.00;97.80;;;;;;4969508;28;20042;-83
2021/05/22 08:43:37;;;;;;;6.93;5.28;;;10.00;97.40;;;;;;4974101;28;20046;-82
2021/05/22 08:46:08;;;;;;;10.15;5.43;;;10.00;97.50;;;;;;5003745;28;21472;-82
2021/05/22 08:48:35;;;;;;;8.80;5.82;;;10.00;97.60;;;;;;5004499;28;20049;-82
2021/05/22 08:51:01;;;;;;;9.55;6.05;;;10.00;97.50;;;;;;4980210;28;20034;-83
2021/05/22 08:53:27;;;;;;;13.48;6.07;;;10.00;97.50;;;;;;4972813;28;20069;-83
2021/05/22 08:55:53;;;;;;;11.45;6.82;;;10.10;97.60;;;;;;4969953;28;20482;-81
2021/05/22 08:58:19;;;;;;;11.63;6.13;;;10.10;97.60;;;;;;4963519;28;20126;-81
2021/05/22 09:00:46;;;;;;;12.02;6.90;;;10.10;97.60;;;;;;4946043;28;20042;-81
2021/05/22 09:03:12;;;;;;;11.38;7.47;;;10.20;97.70;;;;;;4970183;28;20106;-84
2021/05/22 09:05:39;;;;;;;11.23;5.80;;;10.30;97.80;;;;;;4967185;28;20065;-81
2021/05/22 09:08:11;;;;;;;8.77;6.00;;;10.40;97.80;;;;;;4986517;28;20114;-84
2021/05/22 09:10:49;;;;;;;9.85;6.57;;;10.40;97.70;;;;;;4966443;28;20044;-82
2021/05/22 09:13:27;;;;;;;8.25;6.57;;;10.30;97.50;;;;;;4967421;28;20050;-83
2021/05/22 09:15:59;;;;;;;10.15;6.47;;;10.30;97.50;;;;;;4969145;28;20039;-83
2021/05/22 09:18:31;;;;;;;11.85;7.43;;;10.30;97.50;;;;;;5002506;28;20046;-80
2021/05/22 09:20:59;;;;;;;10.30;7.03;;;10.30;97.50;;;;;;4963612;28;20039;-87
2021/05/22 09:23:32;;;;;;;13.98;8.93;;;10.30;98.00;;;;;;4971961;28;20301;-82
2021/05/22 09:26:08;;;;;;;10.68;8.27;;;10.30;97.70;;;;;;4994375;28;20058;-82
2021/05/22 09:28:37;;;;;;;9.77;7.28;;;10.40;97.90;;;;;;4972326;28;20049;-83
2021/05/22 09:31:05;;;;;;;11.90;8.90;;;10.50;98.00;;;;;;4968904;28;20454;-83
2021/05/22 09:33:35;;;;;;;10.43;7.55;;;10.60;97.90;;;;;;4972216;28;20046;-83
2021/05/22 09:36:03;;;;;;;9.13;7.25;;;10.70;98.00;;;;;;4967885;28;20035;-85
2021/05/22 09:38:52;;;;;;;10.50;7.75;;;10.80;97.90;;;;;;4971764;28;20034;-82
2021/05/22 09:41:34;;;;;;;9.75;7.63;;;10.80;97.90;;;;;;4966524;28;20194;-81
2021/05/22 09:44:11;;;;;;;11.40;9.02;;;10.90;97.90;;;;;;4963223;28;20401;-82
2021/05/22 09:46:57;;;;;;;10.10;7.57;;;11.00;97.80;;;;;;4970007;28;20174;-83
2021/05/22 09:49:29;;;;;;;12.40;7.43;;;11.10;97.80;;;;;;4951647;28;20043;-84
2021/05/22 09:52:13;;;;;;;9.77;8.23;;;11.20;97.60;;;;;;4972905;28;20045;-81
2021/05/22 09:54:48;;;;;;;10.65;6.90;;;11.30;97.60;;;;;;4964972;28;20054;-82
2021/05/22 09:57:17;;;;;;;7.43;6.65;;;11.40;97.50;;;;;;4990022;28;20114;-84
2021/05/22 10:00:05;;;;;;;8.15;6.45;;;11.40;97.40;;;;;;4980457;28;20082;-82
2021/05/22 10:02:53;;;;;;;9.88;6.63;;;11.40;97.10;;;;;;4959510;28;20110;-82
2021/05/22 10:05:32;;;;;;;7.55;6.40;;;11.30;97.00;;;;;;4959321;28;20155;-83
2021/05/22 10:07:59;;;;;;;9.40;6.82;;;11.30;97.00;;;;;;4998719;28;20030;-82
2021/05/22 10:10:48;;;;;;;7.32;5.97;;;11.30;97.20;;;;;;4966687;28;20039;-82
2021/05/22 10:13:16;;;;;;;9.60;6.47;;;11.30;97.30;;;;;;4984578;28;20050;-82
2021/05/22 10:15:43;;;;;;;12.77;6.80;;;11.40;97.20;;;;;;4962729;28;20418;-81
2021/05/22 10:18:09;;;;;;;9.55;6.50;;;11.40;97.10;;;;;;4968443;28;20043;-81
2021/05/22 10:20:35;;;;;;;6.53;5.93;;;11.40;97.00;;;;;;5005574;28;20132;-82
2021/05/22 10:23:01;;;;;;;6.80;6.05;;;11.40;97.00;;;;;;4970829;28;20594;-81
2021/05/22 10:25:29;;;;;;;8.25;6.47;;;11.40;97.00;;;;;;4985758;28;20444;-82
2021/05/22 10:27:55;;;;;;;10.50;7.68;;;11.40;96.80;;;;;;4970536;28;20045;-82
2021/05/22 10:30:22;;;;;;;7.97;7.15;;;11.40;96.90;;;;;;4969979;28;20131;-80
2021/05/22 10:32:48;;;;;;;8.60;6.15;;;11.40;96.90;;;;;;4957767;28;20552;-82
2021/05/22 10:35:16;;;;;;;7.22;6.47;;;11.40;96.80;;;;;;4969886;28;20038;-81
2021/05/22 10:37:53;;;;;;;6.47;5.88;;;11.40;96.70;;;;;;4974344;28;20035;-81
2021/05/22 10:40:39;;;;;;;6.43;5.82;;;11.40;96.70;;;;;;4961827;28;20129;-81
2021/05/22 10:43:05;;;;;;;6.53;5.93;;;11.40;96.60;;;;;;4974382;28;20046;-82
2021/05/22 10:45:35;;;;;;;7.90;6.22;;;11.40;96.70;;;;;;5001885;28;20089;-81
2021/05/22 10:48:03;;;;;;;6.40;5.75;;;11.40;96.70;;;;;;4974646;28;20118;-82
2021/05/22 10:50:41;;;;;;;9.65;6.07;;;11.40;96.70;;;;;;4970522;28;20039;-82
2021/05/22 10:53:20;;;;;;;9.20;7.15;;;11.40;96.60;;;;;;4972077;28;20069;-82
2021/05/22 10:56:05;;;;;;;8.23;6.47;;;11.30;96.60;;;;;;4970241;28;20110;-83
2021/05/22 10:58:31;;;;;;;10.95;6.43;;;11.30;96.70;;;;;;4970746;28;20042;-81
2021/05/22 11:01:36;;;;;;;9.32;7.47;;;11.30;96.70;;;;;;4970645;28;20045;-82
2021/05/22 11:04:12;;;;;;;10.95;7.85;;;11.30;96.90;;;;;;4968005;28;20093;-82
2021/05/22 11:06:51;;;;;;;9.80;7.82;;;11.50;97.10;;;;;;4971168;28;20027;-82
2021/05/22 11:09:26;;;;;;;9.82;7.47;;;11.70;97.20;;;;;;4965573;28;20120;-82
2021/05/22 11:11:59;;;;;;;10.85;7.75;;;11.80;97.00;;;;;;4993378;28;20058;-81
2021/05/22 11:14:44;;;;;;;8.95;7.20;;;11.70;96.70;;;;;;4965638;28;20051;-81
2021/05/22 11:17:22;;;;;;;10.93;8.00;;;11.70;96.70;;;;;;4971853;28;20041;-82
2021/05/22 11:20:04;;;;;;;9.43;7.90;;;11.60;96.70;;;;;;4972253;28;20039;-82
2021/05/22 11:22:38;;;;;;;8.98;6.45;;;11.70;97.00;;;;;;4967742;28;20093;-81
2021/05/22 11:25:08;;;;;;;7.60;6.25;;;11.80;96.80;;;;;;4966064;28;20579;-82
2021/05/22 11:30:13;;;;;;;9.70;5.82;;;11.70;96.60;;;;;;4963782;28;20051;-80
2021/05/22 11:32:43;;;;;;;7.72;6.05;;;11.70;96.50;;;;;;4970815;28;20679;-82
2021/05/22 11:35:24;;;;;;;11.75;7.07;;;11.70;96.50;;;;;;4960562;28;20038;-81
2021/05/22 11:37:51;;;;;;;9.18;7.35;;;11.80;96.70;;;;;;4982354;28;20035;-81
2021/05/22 11:40:35;;;;;;;8.35;6.47;;;12.00;97.00;;;;;;4968367;28;20808;-82
2021/05/22 11:43:19;;;;;;;10.65;7.63;;;12.30;97.00;;;;;;4966727;28;20039;-82
2021/05/22 11:45:46;;;;;;;7.25;5.90;;;12.50;96.60;;;;;;4973475;28;20097;-83
2021/05/22 11:48:43;;;;;;;9.63;5.90;;;12.70;96.30;;;;;;4973705;28;20482;-83
2021/05/22 11:51:17;;;;;;;7.45;5.63;;;12.80;96.20;;;;;;4973590;28;20038;-83
2021/05/22 11:54:03;;;;;;;11.13;5.25;;;13.10;96.10;;;;;;4974163;28;20038;-82
2021/05/22 11:56:31;;;;;;;6.82;4.25;;;13.30;96.10;;;;;;4972405;28;20045;-82
2021/05/22 11:58:58;;;;;;;9.60;4.00;;;13.40;95.50;;;;;;4972722;28;20035;-83
2021/05/22 12:01:32;;;;;;;6.22;2.78;;;13.40;94.90;;;;;;4968055;28;20038;-83
2021/05/22 12:04:10;;;;;;;5.35;3.95;;;13.30;94.40;;;;;;4998168;28;20027;-83
2021/05/22 12:06:45;;;;;;;6.50;3.85;;;13.10;94.40;;;;;;4968212;28;20049;-84
2021/05/22 12:09:18;;;;;;;5.45;2.00;;;13.00;94.50;;;;;;5001649;28;20035;-85
2021/05/22 12:12:11;;;;;;;5.45;2.30;;;13.00;94.40;;;;;;4970010;28;20417;-83
2021/05/22 12:14:40;;;;;;;6.32;2.13;;;12.90;93.50;;;;;;4973446;28;20031;-82
2021/05/22 12:17:07;;;;;;;8.32;2.40;;;13.00;93.50;;;;;;4976841;28;20286;-83
2021/05/22 12:19:38;;;;;;;9.05;2.33;;;13.20;93.60;;;;;;4974400;28;20126;-83
2021/05/22 12:22:04;;;;;;;5.93;2.25;;;13.60;93.30;;;;;;4985365;28;20075;-82
2021/05/22 12:24:31;;;;;;;8.27;1.83;;;13.80;92.40;;;;;;4962841;28;20051;-82
2021/05/22 12:26:57;;;;;;;6.80;2.17;;;13.80;91.40;;;;;;4969449;28;20030;-85
2021/05/22 12:29:26;;;;;;;4.28;2.33;;;13.70;91.30;;;;;;4971077;28;20514;-83
2021/05/22 12:32:00;;;;;;;5.90;1.80;;;13.60;91.10;;;;;;4972669;28;20094;-84
2021/05/22 12:34:29;;;;;;;4.78;2.00;;;13.40;90.50;;;;;;4970722;28;20042;-84
2021/05/22 12:37:00;;;;;;;6.90;2.10;;;13.30;90.40;;;;;;4971447;28;20106;-84
2021/05/22 12:39:36;;;;;;;6.10;2.00;;;13.20;90.70;;;;;;4985896;28;20043;-83
2021/05/22 12:42:30;;;;;;;5.25;2.25;;;13.20;90.80;;;;;;4971302;28;20045;-86
2021/05/22 12:45:09;;;;;;;3.22;1.80;;;13.20;90.00;;;;;;4985052;28;20050;-86
2021/05/22 12:47:38;;;;;;;7.90;2.33;;;13.10;90.20;;;;;;4986837;28;20061;-83
2021/05/22 12:50:06;;;;;;;6.13;2.10;;;13.00;90.30;;;;;;4990996;28;20090;-82
2021/05/22 12:52:47;;;;;;;9.85;2.45;;;12.90;90.50;;;;;;4973968;28;20045;-82
2021/05/22 12:55:22;;;;;;;8.73;2.53;;;12.80;90.50;;;;;;4969335;28;20118;-83
2021/05/22 12:57:48;;;;;;;6.97;2.58;;;12.70;90.50;;;;;;5009597;28;20039;-83
2021/05/22 13:00:16;;;;;;;6.57;2.60;;;12.70;90.70;;;;;;4993393;28;20031;-82